Time;durP1;ratioP1;P1;durP2;ratioP2;P2;SDS_P1;SDS_P2;PMS_P1;PMS_P2;Temp;Humidity;BMP_temperature;BMP_pressure;BME280_temperature;BME280_humidity;BME280_pressure;Samples;Min_cycle;Max_cycle;Signal;HPM_P1;HPM_P2
2021/11/04 00:00:12;;;;;;;14.27;13.37;;;21.80;91.80;;;;;;4954054;28;20459;-49
2021/11/04 00:02:39;;;;;;;13.00;12.40;;;21.70;91.90;;;;;;4954599;28;20449;-46
2021/11/04 00:05:06;;;;;;;13.50;12.70;;;21.70;92.30;;;;;;4954219;28;21005;-46
2021/11/04 00:07:33;;;;;;;12.60;12.00;;;21.60;92.40;;;;;;4953817;28;20488;-45
2021/11/04 00:10:00;;;;;;;13.07;12.40;;;21.60;92.70;;;;;;4953932;28;20452;-49
2021/11/04 00:12:28;;;;;;;15.83;14.67;;;21.50;93.00;;;;;;4953870;28;20449;-47
2021/11/04 00:14:55;;;;;;;16.67;15.40;;;21.40;93.00;;;;;;4954126;28;20793;-46
2021/11/04 00:17:22;;;;;;;19.83;18.47;;;21.40;93.40;;;;;;4953814;28;20506;-47
2021/11/04 00:19:49;;;;;;;12.37;11.77;;;21.40;93.70;;;;;;4953662;28;20832;-46
2021/11/04 00:22:15;;;;;;;13.23;12.53;;;21.20;94.30;;;;;;4953619;28;20453;-45
2021/11/04 00:24:42;;;;;;;12.63;12.03;;;21.20;94.80;;;;;;4953634;28;20457;-49
2021/11/04 00:27:09;;;;;;;14.33;13.53;;;21.10;95.30;;;;;;4953511;28;20866;-46
2021/11/04 00:29:37;;;;;;;13.37;12.67;;;21.10;95.50;;;;;;4953604;28;20448;-46
2021/11/04 00:32:04;;;;;;;14.00;13.20;;;21.10;95.80;;;;;;4953637;28;20452;-46
2021/11/04 00:34:31;;;;;;;13.33;12.63;;;21.00;95.90;;;;;;4953624;28;20444;-46
2021/11/04 00:36:58;;;;;;;12.30;11.70;;;21.00;96.50;;;;;;4953510;28;20449;-47
2021/11/04 00:39:25;;;;;;;13.60;12.90;;;21.00;96.80;;;;;;4953587;28;20452;-47
2021/11/04 00:41:52;;;;;;;13.40;12.60;;;20.90;96.90;;;;;;4954839;28;20538;-45
2021/11/04 00:44:19;;;;;;;13.77;13.00;;;20.90;97.20;;;;;;4957595;28;20457;-51
2021/11/04 00:46:47;;;;;;;12.67;12.07;;;20.90;97.40;;;;;;4957512;28;20488;-46
2021/11/04 00:49:14;;;;;;;13.23;12.53;;;20.90;97.70;;;;;;4957430;28;20452;-45
2021/11/04 00:51:40;;;;;;;14.30;13.40;;;20.80;97.90;;;;;;4957347;28;20445;-46
2021/11/04 00:54:07;;;;;;;13.50;12.70;;;20.80;98.00;;;;;;4957459;28;20444;-48
2021/11/04 00:56:34;;;;;;;14.93;14.03;;;20.80;98.20;;;;;;4957562;28;20478;-50
2021/11/04 00:59:01;;;;;;;12.90;12.20;;;20.70;98.40;;;;;;4957177;28;20464;-46
2021/11/04 01:01:27;;;;;;;13.40;12.70;;;20.70;98.80;;;;;;4956975;28;20460;-48
2021/11/04 01:03:55;;;;;;;13.87;13.07;;;20.70;98.70;;;;;;4957499;28;20452;-47
2021/11/04 01:06:22;;;;;;;13.90;13.10;;;20.70;99.00;;;;;;4957326;28;20815;-46
2021/11/04 01:08:49;;;;;;;13.80;13.00;;;20.70;99.00;;;;;;4957040;28;20521;-46
2021/11/04 01:11:17;;;;;;;15.50;14.33;;;20.60;99.10;;;;;;4956882;28;20449;-48
2021/11/04 01:13:44;;;;;;;13.43;12.73;;;20.60;99.20;;;;;;4957098;28;20803;-49
2021/11/04 01:16:11;;;;;;;12.53;11.93;;;20.60;99.30;;;;;;4957291;28;20449;-46
2021/11/04 01:18:37;;;;;;;13.90;13.20;;;20.60;99.70;;;;;;4956944;28;20477;-47
2021/11/04 01:21:06;;;;;;;12.90;12.20;;;20.50;99.60;;;;;;4956989;28;20436;-46
2021/11/04 01:23:32;;;;;;;16.00;14.60;;;20.60;99.80;;;;;;4957122;28;20459;-46
2021/11/04 01:25:59;;;;;;;15.87;14.77;;;20.60;99.70;;;;;;4956924;28;20799;-47
2021/11/04 01:28:26;;;;;;;13.87;13.17;;;20.50;99.70;;;;;;4956621;28;20500;-52
2021/11/04 01:30:53;;;;;;;13.10;12.40;;;20.50;99.90;;;;;;4956616;28;20971;-46
2021/11/04 01:33:19;;;;;;;13.13;12.33;;;20.40;99.90;;;;;;4957024;28;20455;-47
2021/11/04 01:35:46;;;;;;;16.90;15.40;;;20.40;99.90;;;;;;4956775;28;21001;-48
2021/11/04 01:38:17;;;;;;;12.97;12.27;;;20.40;99.90;;;;;;4956804;28;20476;-46
2021/11/04 01:40:44;;;;;;;14.17;13.17;;;20.40;99.90;;;;;;4956360;28;20456;-48
2021/11/04 01:43:11;;;;;;;14.60;13.60;;;20.40;99.90;;;;;;4956807;28;20448;-49
2021/11/04 01:45:37;;;;;;;14.53;13.53;;;20.40;99.90;;;;;;4956607;28;20943;-47
2021/11/04 01:48:05;;;;;;;13.17;12.37;;;20.40;99.90;;;;;;4956433;28;20819;-51
2021/11/04 01:50:32;;;;;;;13.03;12.30;;;20.40;99.90;;;;;;4956309;28;20452;-49
2021/11/04 01:52:59;;;;;;;12.97;12.17;;;20.40;99.90;;;;;;4955217;28;20456;-50
2021/11/04 01:55:29;;;;;;;13.30;12.60;;;20.40;99.90;;;;;;4956362;28;20504;-51
2021/11/04 01:57:56;;;;;;;13.13;12.33;;;20.40;99.90;;;;;;4956564;28;20473;-48
2021/11/04 02:00:25;;;;;;;12.30;11.70;;;20.40;99.90;;;;;;4956044;28;20449;-48
2021/11/04 02:02:58;;;;;;;12.47;11.70;;;20.40;99.90;;;;;;4956227;28;20922;-50
2021/11/04 02:05:30;;;;;;;15.03;14.13;;;20.30;99.90;;;;;;4956007;28;20448;-48
2021/11/04 02:08:02;;;;;;;13.80;12.93;;;20.30;99.90;;;;;;4956003;28;20488;-48
2021/11/04 02:10:34;;;;;;;13.67;12.70;;;20.30;99.90;;;;;;4955724;28;20440;-50
2021/11/04 02:13:09;;;;;;;14.30;13.27;;;20.30;99.90;;;;;;4956235;28;20467;-51
2021/11/04 02:15:38;;;;;;;13.17;12.33;;;20.30;99.90;;;;;;4956377;28;20452;-48
2021/11/04 02:18:07;;;;;;;15.37;14.20;;;20.20;99.90;;;;;;4955738;28;20834;-47
2021/11/04 02:20:43;;;;;;;13.40;12.60;;;20.20;99.90;;;;;;4955550;28;20954;-47
2021/11/04 02:23:18;;;;;;;13.27;12.57;;;20.20;99.90;;;;;;4955905;28;20451;-47
2021/11/04 02:25:47;;;;;;;13.40;12.80;;;20.20;99.90;;;;;;4955901;28;20535;-51
2021/11/04 02:28:19;;;;;;;12.90;12.20;;;20.20;99.90;;;;;;4956296;28;20497;-51
2021/11/04 02:30:47;;;;;;;13.80;12.90;;;20.20;99.90;;;;;;4955279;28;20453;-54
2021/11/04 02:33:15;;;;;;;14.23;13.33;;;20.10;99.90;;;;;;4955706;28;20965;-53
2021/11/04 02:35:48;;;;;;;14.57;13.67;;;20.10;99.90;;;;;;4955581;28;20456;-54
2021/11/04 02:38:17;;;;;;;13.77;12.97;;;20.10;99.90;;;;;;4955040;28;20994;-50
2021/11/04 02:40:45;;;;;;;14.80;13.80;;;20.10;99.90;;;;;;4955422;28;20455;-51
2021/11/04 02:43:13;;;;;;;13.63;12.73;;;20.10;99.90;;;;;;4955545;28;20455;-48
2021/11/04 02:45:41;;;;;;;13.33;12.53;;;20.10;99.90;;;;;;4955609;28;20449;-48
2021/11/04 02:48:08;;;;;;;14.60;13.60;;;20.00;99.90;;;;;;4955179;28;20488;-49
2021/11/04 02:50:36;;;;;;;14.17;13.27;;;20.00;99.90;;;;;;4955251;28;20464;-49
2021/11/04 02:53:03;;;;;;;13.53;12.83;;;20.00;99.90;;;;;;4955219;28;20471;-50
2021/11/04 02:55:35;;;;;;;14.30;13.40;;;20.00;99.90;;;;;;4955347;28;20448;-49
2021/11/04 02:58:06;;;;;;;15.53;14.40;;;20.00;99.90;;;;;;4955141;28;20464;-49
2021/11/04 03:00:33;;;;;;;13.50;12.80;;;20.00;99.90;;;;;;4955110;28;20982;-51
2021/11/04 03:03:00;;;;;;;12.87;12.17;;;20.00;99.90;;;;;;4955191;28;20448;-54
2021/11/04 03:05:27;;;;;;;12.87;12.07;;;20.00;99.90;;;;;;4955285;28;20448;-55
2021/11/04 03:07:53;;;;;;;14.40;13.40;;;20.00;99.90;;;;;;4954662;28;20496;-55
2021/11/04 03:10:21;;;;;;;14.03;13.03;;;19.90;99.90;;;;;;4954831;28;20471;-53
2021/11/04 03:12:48;;;;;;;14.30;13.20;;;19.90;99.90;;;;;;4955120;28;20448;-55
2021/11/04 03:15:18;;;;;;;14.93;13.83;;;19.90;99.90;;;;;;4954960;28;20464;-50
2021/11/04 03:17:47;;;;;;;13.97;13.17;;;19.90;99.90;;;;;;4954584;28;20468;-49
2021/11/04 03:20:15;;;;;;;14.30;13.30;;;19.90;99.90;;;;;;4954528;28;20457;-54
2021/11/04 03:22:43;;;;;;;15.03;14.03;;;19.90;99.90;;;;;;4955046;28;20449;-55
2021/11/04 03:25:10;;;;;;;14.17;13.37;;;19.90;99.90;;;;;;4954709;28;20455;-52
2021/11/04 03:27:39;;;;;;;13.77;12.80;;;19.90;99.90;;;;;;4954532;28;20492;-49
2021/11/04 03:30:08;;;;;;;13.53;12.73;;;19.80;99.90;;;;;;4954266;28;20452;-54
2021/11/04 03:32:38;;;;;;;14.70;13.70;;;19.80;99.90;;;;;;4954691;28;20445;-50
2021/11/04 03:35:06;;;;;;;13.93;13.10;;;19.80;99.90;;;;;;4954707;28;20452;-54
2021/11/04 03:37:33;;;;;;;13.57;12.80;;;19.80;99.90;;;;;;4954530;28;20477;-53
2021/11/04 03:40:01;;;;;;;15.43;14.43;;;19.70;99.90;;;;;;4954271;28;20451;-51
2021/11/04 03:42:28;;;;;;;13.57;12.67;;;19.70;99.90;;;;;;4954328;28;20936;-58
2021/11/04 03:44:55;;;;;;;13.60;12.80;;;19.70;99.90;;;;;;4954358;28;20457;-55
2021/11/04 03:47:23;;;;;;;14.40;13.50;;;19.70;99.90;;;;;;4954011;28;20487;-55
2021/11/04 03:49:52;;;;;;;14.60;13.60;;;19.70;99.90;;;;;;4954053;28;20528;-56
2021/11/04 03:52:20;;;;;;;14.17;13.37;;;19.70;99.90;;;;;;4954212;28;20448;-56
2021/11/04 03:54:47;;;;;;;14.53;13.43;;;19.70;99.90;;;;;;4954687;28;20452;-51
2021/11/04 03:57:14;;;;;;;14.10;13.20;;;19.60;99.90;;;;;;4954013;28;20471;-48
2021/11/04 03:59:41;;;;;;;14.97;14.03;;;19.70;99.90;;;;;;4954197;28;20441;-49
2021/11/04 04:02:08;;;;;;;13.53;12.53;;;19.70;99.90;;;;;;4954039;28;20821;-49
2021/11/04 04:04:35;;;;;;;13.83;12.90;;;19.70;99.90;;;;;;4954038;28;20456;-50
2021/11/04 04:07:03;;;;;;;13.20;12.40;;;19.70;99.90;;;;;;4954023;28;20472;-49
2021/11/04 04:09:30;;;;;;;16.23;15.13;;;19.60;99.90;;;;;;4953746;28;20491;-50
2021/11/04 04:11:57;;;;;;;15.23;14.13;;;19.60;99.90;;;;;;4954214;28;20452;-51
2021/11/04 04:14:24;;;;;;;14.33;13.43;;;19.60;99.90;;;;;;4953763;28;20537;-51
2021/11/04 04:16:51;;;;;;;15.77;14.70;;;19.60;99.90;;;;;;4952893;28;20453;-51
2021/11/04 04:19:18;;;;;;;14.67;13.67;;;19.60;99.90;;;;;;4953785;28;20444;-49
2021/11/04 04:21:45;;;;;;;15.00;14.10;;;19.60;99.90;;;;;;4953868;28;20441;-49
2021/11/04 04:24:13;;;;;;;12.90;12.20;;;19.50;99.90;;;;;;4953949;28;20460;-49
2021/11/04 04:26:39;;;;;;;14.83;13.87;;;19.50;99.90;;;;;;4953756;28;20452;-51
2021/11/04 04:29:06;;;;;;;13.03;12.23;;;19.60;99.90;;;;;;4953046;28;20476;-50
2021/11/04 04:31:33;;;;;;;14.63;13.70;;;19.60;99.90;;;;;;4954054;28;20460;-54
2021/11/04 04:34:00;;;;;;;13.57;12.73;;;19.60;99.90;;;;;;4953845;28;20455;-51
2021/11/04 04:36:27;;;;;;;14.17;13.27;;;19.60;99.90;;;;;;4953555;28;20453;-49
2021/11/04 04:38:54;;;;;;;13.60;12.80;;;19.50;99.90;;;;;;4953438;28;20471;-51
2021/11/04 04:41:22;;;;;;;13.37;12.67;;;19.50;99.90;;;;;;4953500;28;20512;-49
2021/11/04 04:43:49;;;;;;;14.30;13.27;;;19.60;99.90;;;;;;4953582;28;20449;-49
2021/11/04 04:46:17;;;;;;;13.93;12.93;;;19.60;99.90;;;;;;4953582;28;20447;-49
2021/11/04 04:48:43;;;;;;;13.20;12.47;;;19.60;99.90;;;;;;4953128;28;20488;-50
2021/11/04 04:51:10;;;;;;;12.53;11.80;;;19.50;99.90;;;;;;4953399;28;20445;-50
2021/11/04 04:53:37;;;;;;;13.53;12.70;;;19.50;99.90;;;;;;4953395;28;20851;-49
2021/11/04 04:56:04;;;;;;;15.00;14.03;;;19.50;99.90;;;;;;4953607;28;20811;-50
2021/11/04 04:58:32;;;;;;;14.17;13.17;;;19.50;99.90;;;;;;4953526;28;20461;-49
2021/11/04 05:00:59;;;;;;;13.53;12.63;;;19.50;99.90;;;;;;4953504;28;20456;-50
2021/11/04 05:03:26;;;;;;;13.90;12.90;;;19.50;99.90;;;;;;4953542;28;20449;-48
2021/11/04 05:05:52;;;;;;;13.60;12.80;;;19.50;99.90;;;;;;4953488;28;20456;-53
2021/11/04 05:08:19;;;;;;;12.33;11.77;;;19.50;99.90;;;;;;4953074;28;20488;-49
2021/11/04 05:10:46;;;;;;;14.47;13.50;;;19.50;99.90;;;;;;4953090;28;20496;-52
2021/11/04 05:13:12;;;;;;;12.70;12.00;;;19.40;99.90;;;;;;4953623;28;20914;-52
2021/11/04 05:15:40;;;;;;;13.67;12.90;;;19.40;99.90;;;;;;4953380;28;20457;-52
2021/11/04 05:18:09;;;;;;;14.63;13.73;;;19.50;99.90;;;;;;4952957;28;20812;-50
2021/11/04 05:20:36;;;;;;;13.67;12.80;;;19.50;99.90;;;;;;4953196;28;20452;-51
2021/11/04 05:23:03;;;;;;;13.43;12.67;;;19.50;99.90;;;;;;4953362;28;20480;-50
2021/11/04 05:25:29;;;;;;;13.70;13.00;;;19.50;99.90;;;;;;4953343;28;20444;-54
2021/11/04 05:27:56;;;;;;;15.10;14.00;;;19.50;99.90;;;;;;4954481;28;21017;-49
2021/11/04 05:30:23;;;;;;;16.67;15.67;;;19.40;99.90;;;;;;4956591;28;20452;-50
2021/11/04 05:32:52;;;;;;;15.63;14.53;;;19.40;99.90;;;;;;4956743;28;20447;-50
2021/11/04 05:35:19;;;;;;;13.80;12.90;;;19.50;99.90;;;;;;4956790;28;20448;-53
2021/11/04 05:37:46;;;;;;;13.93;13.13;;;19.40;99.90;;;;;;4956478;28;20473;-50
2021/11/04 05:40:13;;;;;;;15.40;14.50;;;19.40;99.90;;;;;;4956343;28;20823;-51
2021/11/04 05:42:41;;;;;;;15.23;14.33;;;19.40;99.90;;;;;;4956666;28;20452;-50
2021/11/04 05:45:08;;;;;;;13.97;13.10;;;19.40;99.90;;;;;;4956670;28;20464;-51
2021/11/04 05:47:35;;;;;;;14.37;13.57;;;19.40;99.90;;;;;;4956201;28;20837;-50
2021/11/04 05:50:04;;;;;;;16.30;15.00;;;19.40;99.90;;;;;;4948177;28;20946;-51
2021/11/04 05:52:30;;;;;;;13.90;13.20;;;19.30;99.90;;;;;;4944590;28;20687;-53
2021/11/04 05:54:57;;;;;;;15.97;14.97;;;19.40;99.90;;;;;;4944730;28;20788;-54
2021/11/04 05:57:25;;;;;;;16.13;14.93;;;19.90;99.90;;;;;;4944444;28;20472;-53
2021/11/04 05:59:51;;;;;;;14.00;13.30;;;20.80;99.90;;;;;;4944321;28;20959;-56
2021/11/04 06:02:18;;;;;;;15.03;14.30;;;21.30;99.90;;;;;;4944284;28;20931;-55
2021/11/04 06:04:45;;;;;;;14.00;13.40;;;21.70;99.90;;;;;;4944231;28;20449;-55
2021/11/04 06:07:14;;;;;;;15.53;14.73;;;22.40;99.30;;;;;;4944536;28;20532;-53
2021/11/04 06:09:41;;;;;;;15.50;14.70;;;23.20;97.20;;;;;;4944252;28;21089;-56
2021/11/04 06:12:08;;;;;;;16.70;15.70;;;23.60;95.50;;;;;;4944123;28;20467;-53
2021/11/04 06:14:36;;;;;;;15.27;14.47;;;23.80;93.90;;;;;;4944205;28;20456;-54
2021/11/04 06:17:03;;;;;;;16.67;15.77;;;23.70;93.10;;;;;;4943859;28;20472;-53
2021/11/04 06:19:29;;;;;;;16.37;15.60;;;24.00;92.60;;;;;;4944094;28;20483;-54
2021/11/04 06:21:56;;;;;;;16.87;15.73;;;24.20;91.70;;;;;;4944174;28;20819;-54
2021/11/04 06:24:24;;;;;;;16.50;15.40;;;24.20;91.10;;;;;;4944002;28;20460;-51
2021/11/04 06:26:51;;;;;;;14.80;14.00;;;24.20;90.50;;;;;;4955306;28;20808;-54
2021/11/04 06:29:18;;;;;;;15.40;14.50;;;24.30;90.30;;;;;;4944332;28;21022;-55
2021/11/04 06:31:44;;;;;;;16.70;15.50;;;24.20;88.90;;;;;;4944708;28;20465;-54
2021/11/04 06:34:11;;;;;;;16.03;15.03;;;24.20;89.20;;;;;;4946997;28;21074;-53
2021/11/04 06:36:38;;;;;;;15.83;15.03;;;24.20;89.10;;;;;;4944698;28;20461;-57
2021/11/04 06:39:04;;;;;;;15.50;14.50;;;24.30;88.80;;;;;;4943146;28;20465;-55
2021/11/04 06:41:32;;;;;;;15.57;14.83;;;24.90;87.00;;;;;;4943806;28;20452;-56
2021/11/04 06:43:59;;;;;;;16.10;15.13;;;25.50;82.70;;;;;;4944009;28;20821;-57
2021/11/04 06:46:27;;;;;;;15.63;14.80;;;25.60;80.30;;;;;;4944519;28;20457;-57
2021/11/04 06:49:03;;;;;;;16.90;15.90;;;25.60;79.20;;;;;;4943635;28;20496;-56
2021/11/04 06:51:32;;;;;;;17.27;16.37;;;25.50;78.60;;;;;;4944210;28;20451;-57
2021/11/04 06:53:59;;;;;;;16.60;15.80;;;25.60;77.90;;;;;;4943528;28;20459;-57
2021/11/04 06:56:26;;;;;;;17.40;16.50;;;25.50;77.70;;;;;;4943428;28;20623;-54
2021/11/04 06:58:55;;;;;;;15.60;14.80;;;25.40;77.10;;;;;;4943210;28;20469;-51
2021/11/04 07:01:23;;;;;;;15.90;14.90;;;25.40;77.10;;;;;;4943480;28;20536;-54
2021/11/04 07:03:55;;;;;;;15.67;14.70;;;25.40;77.40;;;;;;4943226;28;20777;-51
2021/11/04 07:06:27;;;;;;;15.77;14.97;;;25.40;76.70;;;;;;4942942;28;20483;-52
2021/11/04 07:08:56;;;;;;;15.97;15.17;;;25.70;76.50;;;;;;4943019;28;21002;-57
2021/11/04 07:11:24;;;;;;;16.40;15.60;;;26.30;73.90;;;;;;4943228;28;20448;-53
2021/11/04 07:13:53;;;;;;;16.33;15.60;;;26.40;72.10;;;;;;4943275;28;20806;-55
2021/11/04 07:16:22;;;;;;;15.73;14.87;;;26.30;71.50;;;;;;4943216;28;20935;-53
2021/11/04 07:18:50;;;;;;;17.10;16.10;;;26.20;71.10;;;;;;4942979;29;20477;-52
2021/11/04 07:21:21;;;;;;;14.77;14.07;;;26.20;70.90;;;;;;4943202;28;20504;-51
2021/11/04 07:23:53;;;;;;;15.33;14.53;;;26.10;70.70;;;;;;4942955;28;21056;-51
2021/11/04 07:26:29;;;;;;;12.33;11.63;;;26.00;70.70;;;;;;4943135;28;21002;-53
2021/11/04 07:28:58;;;;;;;17.10;16.27;;;26.00;70.70;;;;;;4942427;28;20578;-50
2021/11/04 07:31:28;;;;;;;10.40;9.90;;;25.80;70.90;;;;;;4942700;28;21010;-51
2021/11/04 07:33:55;;;;;;;13.03;12.23;;;25.70;71.40;;;;;;4942892;28;20997;-54
2021/11/04 07:36:21;;;;;;;13.17;12.47;;;26.00;71.40;;;;;;4942844;28;21161;-57
2021/11/04 07:38:49;;;;;;;12.33;11.63;;;26.50;69.60;;;;;;4942404;28;20472;-51
2021/11/04 07:41:16;;;;;;;12.67;11.97;;;26.70;67.50;;;;;;4942700;28;20464;-53
2021/11/04 07:43:43;;;;;;;12.67;11.97;;;26.70;67.00;;;;;;4942661;28;20921;-54
2021/11/04 07:46:11;;;;;;;12.80;12.17;;;26.60;66.80;;;;;;4942506;28;20551;-52
2021/11/04 07:48:37;;;;;;;13.47;12.63;;;26.60;66.40;;;;;;4942503;28;20468;-53
2021/11/04 07:51:04;;;;;;;11.73;11.03;;;26.50;66.50;;;;;;4941877;28;20966;-52
2021/11/04 07:53:31;;;;;;;11.83;11.13;;;26.50;66.60;;;;;;4942555;28;20464;-54
2021/11/04 07:55:58;;;;;;;11.97;11.27;;;26.40;66.60;;;;;;4942334;28;20967;-51
2021/11/04 07:58:24;;;;;;;10.90;10.23;;;26.30;66.70;;;;;;4942634;28;20882;-52
2021/11/04 08:00:51;;;;;;;11.57;10.97;;;26.20;66.60;;;;;;4942530;28;20461;-51
2021/11/04 08:03:19;;;;;;;10.77;9.97;;;26.20;68.00;;;;;;4942491;28;20464;-52
2021/11/04 08:05:48;;;;;;;10.30;9.60;;;26.50;67.20;;;;;;4942226;28;20933;-50
2021/11/04 08:08:15;;;;;;;11.17;10.57;;;27.10;65.20;;;;;;4942217;28;20524;-50
2021/11/04 08:10:42;;;;;;;11.10;10.50;;;27.10;64.10;;;;;;4942162;28;20496;-54
2021/11/04 08:13:13;;;;;;;11.47;10.77;;;27.10;63.90;;;;;;4942539;28;20453;-54
2021/11/04 08:15:40;;;;;;;10.90;10.20;;;27.10;63.60;;;;;;4942022;28;20451;-64
2021/11/04 08:18:08;;;;;;;11.40;10.80;;;27.10;63.50;;;;;;4942410;28;20608;-58
2021/11/04 08:20:36;;;;;;;12.37;11.30;;;26.90;63.50;;;;;;4942195;28;20890;-60
2021/11/04 08:23:08;;;;;;;13.00;12.10;;;26.80;63.80;;;;;;4942532;28;20448;-61
2021/11/04 08:25:35;;;;;;;12.33;11.53;;;26.60;61.50;;;;;;4942919;28;20883;-55
2021/11/04 08:28:02;;;;;;;12.30;11.60;;;26.50;61.90;;;;;;4991068;23;20495;-52
2021/11/04 08:30:28;;;;;;;10.80;10.20;;;26.50;63.20;;;;;;4958085;28;20488;-58
2021/11/04 08:32:55;;;;;;;12.20;11.50;;;26.40;63.80;;;;;;4967310;28;20444;-59
2021/11/04 08:35:22;;;;;;;10.77;10.17;;;26.70;64.10;;;;;;4964330;28;20460;-52
2021/11/04 08:37:50;;;;;;;11.17;10.57;;;27.10;62.70;;;;;;4959287;28;20468;-52
2021/11/04 08:40:17;;;;;;;12.70;12.00;;;27.20;61.90;;;;;;4945906;28;20453;-50
2021/11/04 08:42:43;;;;;;;12.03;11.33;;;27.10;61.90;;;;;;4946434;28;21056;-51
2021/11/04 08:45:10;;;;;;;11.57;10.87;;;27.00;61.90;;;;;;4945642;28;20445;-51
2021/11/04 08:47:38;;;;;;;10.53;9.93;;;26.90;62.00;;;;;;4945726;28;20474;-58
2021/11/04 08:50:07;;;;;;;13.70;12.80;;;26.80;62.80;;;;;;4942252;28;20492;-61
2021/11/04 08:52:34;;;;;;;11.15;10.45;;;26.70;62.70;;;;;;4942235;28;20458;-55
2021/11/04 08:55:03;;;;;;;10.70;10.10;;;26.60;62.80;;;;;;4945402;28;20224;-52
2021/11/04 08:57:30;;;;;;;11.07;10.37;;;26.50;63.10;;;;;;4941625;28;21001;-48
2021/11/04 08:59:57;;;;;;;9.73;9.13;;;26.60;63.60;;;;;;4941940;28;20449;-49
2021/11/04 09:02:25;;;;;;;9.40;8.90;;;26.80;63.30;;;;;;4943941;28;21197;-48
2021/11/04 09:04:53;;;;;;;11.70;11.00;;;27.10;62.30;;;;;;4948422;28;20472;-50
2021/11/04 09:07:22;;;;;;;9.98;9.38;;;27.30;60.90;;;;;;4946639;28;21076;-49
2021/11/04 09:09:50;;;;;;;11.43;10.77;;;27.30;60.00;;;;;;4945911;28;20325;-50
2021/11/04 09:12:19;;;;;;;10.53;9.93;;;27.30;59.80;;;;;;4945128;28;20463;-49
2021/11/04 09:14:50;;;;;;;10.87;10.17;;;27.20;60.00;;;;;;4945321;28;20456;-48
2021/11/04 09:17:18;;;;;;;10.90;10.20;;;27.10;60.10;;;;;;4945046;28;20452;-48
2021/11/04 09:19:45;;;;;;;9.97;9.47;;;27.00;60.50;;;;;;4945340;28;20460;-47
2021/11/04 09:22:13;;;;;;;9.90;9.40;;;27.00;60.80;;;;;;4947068;28;20452;-49
2021/11/04 09:24:41;;;;;;;13.17;12.47;;;26.90;60.90;;;;;;4947013;28;20531;-47
2021/11/04 09:27:08;;;;;;;11.90;11.30;;;26.80;61.10;;;;;;4946208;28;20937;-48
2021/11/04 09:29:39;;;;;;;11.63;10.93;;;26.90;61.50;;;;;;4947651;28;20488;-48
2021/11/04 09:32:08;;;;;;;12.00;11.27;;;27.30;60.70;;;;;;4949302;28;20452;-48
2021/11/04 09:34:36;;;;;;;13.17;12.57;;;27.50;59.50;;;;;;4939074;29;20907;-49
2021/11/04 09:37:06;;;;;;;14.17;13.50;;;27.40;59.20;;;;;;4947604;28;20452;-48
2021/11/04 09:39:33;;;;;;;14.20;13.40;;;27.40;59.30;;;;;;4946670;28;20928;-47
2021/11/04 09:42:01;;;;;;;15.00;14.30;;;27.30;59.30;;;;;;4945042;28;20464;-48
2021/11/04 09:44:28;;;;;;;14.50;13.90;;;27.20;59.30;;;;;;4944663;28;20462;-48
2021/11/04 09:46:56;;;;;;;16.67;15.93;;;27.20;59.30;;;;;;4945111;28;21090;-48
2021/11/04 09:49:27;;;;;;;15.93;15.23;;;27.10;59.90;;;;;;4945025;28;20476;-49
2021/11/04 09:51:54;;;;;;;17.30;16.47;;;27.00;60.10;;;;;;4946523;28;20905;-47
2021/11/04 09:54:22;;;;;;;14.90;14.20;;;26.90;61.00;;;;;;4945421;28;20456;-48
2021/11/04 09:56:49;;;;;;;15.13;14.43;;;27.10;61.10;;;;;;4946304;28;20456;-48
2021/11/04 09:59:17;;;;;;;14.10;13.50;;;27.60;60.00;;;;;;4949089;28;20475;-49
2021/11/04 10:01:46;;;;;;;15.30;14.60;;;27.70;59.20;;;;;;4950682;28;20484;-48
2021/11/04 10:04:16;;;;;;;15.00;14.30;;;27.60;59.20;;;;;;4951977;28;20540;-47
2021/11/04 10:06:43;;;;;;;16.23;15.50;;;27.50;59.20;;;;;;4949211;28;20449;-49
2021/11/04 10:09:12;;;;;;;14.83;14.20;;;27.50;59.20;;;;;;4943762;28;20771;-49
2021/11/04 10:11:41;;;;;;;14.83;14.13;;;27.50;58.90;;;;;;4944405;28;20512;-48
2021/11/04 10:14:12;;;;;;;15.37;14.67;;;27.40;59.20;;;;;;4943432;28;20464;-48
2021/11/04 10:16:41;;;;;;;14.77;14.07;;;27.40;59.20;;;;;;4944878;28;20440;-48
2021/11/04 10:19:09;;;;;;;15.10;14.37;;;27.30;59.70;;;;;;4924748;29;20473;-50
2021/11/04 10:21:40;;;;;;;14.77;13.97;;;27.20;60.20;;;;;;4925527;29;20814;-49
2021/11/04 10:24:16;;;;;;;14.73;14.03;;;27.20;60.70;;;;;;4926186;29;20461;-50
2021/11/04 10:26:43;;;;;;;14.80;14.10;;;27.50;60.60;;;;;;4927493;29;20955;-49
2021/11/04 10:29:13;;;;;;;16.03;15.33;;;27.90;59.20;;;;;;4945383;29;20484;-50
2021/11/04 10:31:43;;;;;;;15.43;14.73;;;28.10;58.50;;;;;;4946740;28;20583;-49
2021/11/04 10:34:15;;;;;;;15.07;14.47;;;28.00;58.30;;;;;;4945739;28;20469;-50
2021/11/04 10:36:45;;;;;;;16.40;15.60;;;27.90;58.40;;;;;;4945598;28;20483;-48
2021/11/04 10:39:14;;;;;;;15.33;14.53;;;27.80;58.80;;;;;;4944705;28;21266;-48
2021/11/04 10:41:43;;;;;;;15.20;14.30;;;27.70;59.10;;;;;;4944489;28;20472;-50
2021/11/04 10:44:13;;;;;;;15.23;14.63;;;27.50;59.10;;;;;;4946105;28;20498;-49
2021/11/04 10:46:45;;;;;;;25.07;22.37;;;27.50;59.30;;;;;;4945677;28;20523;-51
2021/11/04 10:49:13;;;;;;;12.90;12.20;;;27.40;59.50;;;;;;4945807;28;20483;-51
2021/11/04 10:51:40;;;;;;;14.20;13.00;;;27.50;59.70;;;;;;4944175;28;20489;-50
2021/11/04 10:54:11;;;;;;;13.50;12.70;;;27.80;59.10;;;;;;4943526;28;20457;-49
2021/11/04 10:56:40;;;;;;;16.10;14.90;;;28.10;58.30;;;;;;4943552;28;20452;-49
2021/11/04 10:59:09;;;;;;;17.70;16.60;;;28.10;58.20;;;;;;4943758;28;20568;-50
2021/11/04 11:01:38;;;;;;;13.53;12.43;;;28.00;58.10;;;;;;4944532;28;20559;-49
2021/11/04 11:04:08;;;;;;;12.63;11.73;;;27.90;58.20;;;;;;4944069;28;21054;-49
2021/11/04 11:06:39;;;;;;;15.20;14.10;;;27.70;58.30;;;;;;4945300;28;20463;-50
2021/11/04 11:09:10;;;;;;;14.07;13.07;;;27.70;58.50;;;;;;4943519;28;20986;-48
2021/11/04 11:11:38;;;;;;;16.33;15.00;;;27.50;58.60;;;;;;4945021;28;20499;-49
2021/11/04 11:14:06;;;;;;;15.17;13.97;;;27.50;58.90;;;;;;4945183;28;20452;-48
2021/11/04 11:16:36;;;;;;;13.73;12.70;;;27.40;59.00;;;;;;4944297;28;20464;-50
2021/11/04 11:19:03;;;;;;;14.17;13.03;;;27.40;59.50;;;;;;4945252;28;20472;-50
2021/11/04 11:21:33;;;;;;;14.33;13.33;;;27.70;59.20;;;;;;4944259;28;20508;-51
2021/11/04 11:24:02;;;;;;;16.00;14.70;;;28.10;58.30;;;;;;4944368;28;20463;-50
2021/11/04 11:26:31;;;;;;;17.33;15.53;;;28.10;57.90;;;;;;4945685;28;20464;-50
2021/11/04 11:29:00;;;;;;;33.83;25.53;;;28.10;57.90;;;;;;4945768;28;20598;-49
2021/11/04 11:31:28;;;;;;;20.83;18.27;;;28.00;57.90;;;;;;4946546;28;20519;-50
2021/11/04 11:34:28;;;;;;;16.73;15.33;;;27.90;58.00;;;;;;4945433;28;20460;-50
2021/11/04 11:37:11;;;;;;;17.50;16.10;;;27.80;58.20;;;;;;4944615;28;20456;-49
2021/11/04 11:39:40;;;;;;;20.17;18.50;;;27.70;58.20;;;;;;4947536;28;20468;-48
2021/11/04 11:42:13;;;;;;;16.30;14.80;;;27.70;58.50;;;;;;4947159;28;20452;-50
2021/11/04 11:44:47;;;;;;;19.90;17.90;;;27.70;58.50;;;;;;4945937;28;20484;-50
2021/11/04 11:47:16;;;;;;;18.10;16.50;;;27.60;58.60;;;;;;4945504;28;20491;-49
2021/11/04 11:49:45;;;;;;;17.13;15.40;;;27.50;58.90;;;;;;4945751;28;20452;-49
2021/11/04 11:52:43;;;;;;;19.33;17.43;;;27.90;58.70;;;;;;4945742;28;20822;-51
2021/11/04 11:55:12;;;;;;;19.90;18.00;;;28.30;57.50;;;;;;4946202;28;20448;-51
2021/11/04 11:57:41;;;;;;;18.20;16.47;;;28.30;57.20;;;;;;4945347;28;20473;-53
2021/11/04 12:00:08;;;;;;;16.60;15.30;;;28.30;57.10;;;;;;4945147;28;20831;-53
2021/11/04 12:02:52;;;;;;;18.17;16.50;;;28.30;56.90;;;;;;4945203;28;20452;-49
2021/11/04 12:05:39;;;;;;;15.93;14.40;;;28.30;56.90;;;;;;4943537;28;20467;-48
2021/11/04 12:08:34;;;;;;;16.60;15.03;;;28.30;56.90;;;;;;4943026;28;20487;-51
2021/11/04 12:11:02;;;;;;;20.67;18.57;;;28.20;57.00;;;;;;4942352;28;20495;-48
2021/11/04 12:13:36;;;;;;;18.70;16.80;;;28.30;57.20;;;;;;4942413;28;20448;-49
2021/11/04 12:16:11;;;;;;;19.80;17.90;;;28.90;56.20;;;;;;4942432;28;20444;-54
2021/11/04 12:18:46;;;;;;;26.63;22.07;;;28.80;55.80;;;;;;4941711;28;20898;-50
2021/11/04 12:21:19;;;;;;;19.30;17.40;;;28.90;55.70;;;;;;4941888;28;20460;-52
2021/11/04 12:23:46;;;;;;;23.60;21.10;;;29.00;55.40;;;;;;4940292;29;20571;-53
2021/11/04 12:26:14;;;;;;;20.60;18.30;;;29.00;55.30;;;;;;4942107;28;21053;-53
2021/11/04 12:28:47;;;;;;;22.17;20.07;;;28.90;55.30;;;;;;4941510;28;20484;-50
2021/11/04 12:31:16;;;;;;;19.60;17.80;;;28.70;55.50;;;;;;4942329;28;21096;-51
2021/11/04 12:33:43;;;;;;;19.33;17.53;;;28.40;55.90;;;;;;4943143;28;20456;-49